Time,TemperatureF,DewpointF,PressureIn,WindDirection,WindDirectionDegrees,WindSpeedMPH,WindSpeedGustMPH,Humidity,HourlyPrecipIn,Conditions,Clouds,dailyrainin,SoftwareType,DateUTC
2013-11-13 00:02:00,31.0,20.6,31.36,West,267,3.0,8.0,65,0.00,RA,RA,0.00,WeatherDisplay:10.37,2013-11-13 05:02:00,
2013-11-13 00:07:00,31.0,20.6,31.35,WNW,285,3.0,6.0,65,0.00,RA,RA,0.00,WeatherDisplay:10.37,2013-11-13 05:07:00,
2013-11-13 00:12:00,30.9,20.1,31.35,WNW,291,2.0,4.0,64,0.00,CLR,CLR,0.00,WeatherDisplay:10.37,2013-11-13 05:12:00,
2013-11-13 00:17:00,30.9,20.8,31.35,West,270,5.0,7.0,66,0.00,CLR,CLR,0.00,WeatherDisplay:10.37,2013-11-13 05:17:00,
2013-11-13 00:22:00,30.8,20.4,31.36,West,269,3.0,5.0,65,0.00,CLR,CLR,0.00,WeatherDisplay:10.37,2013-11-13 05:22:00,
2013-11-13 00:27:00,30.7,21.0,31.35,West,263,1.0,5.0,67,0.00,CLR,CLR,0.00,WeatherDisplay:10.37,2013-11-13 05:27:00,
2013-11-13 00:32:00,30.7,21.0,31.36,West,259,5.0,8.0,67,0.00,CLR,CLR,0.00,WeatherDisplay:10.37,2013-11-13 05:32:00,
2013-11-13 00:37:00,30.7,20.7,31.36,West,265,2.0,7.0,66,0.00,CLR,CLR,0.00,WeatherDisplay:10.37,2013-11-13 05:37:00,
2013-11-13 00:42:00,30.7,20.7,31.36,West,268,2.0,8.0,66,0.00,CLR,CLR,0.00,WeatherDisplay:10.37,2013-11-13 05:42:00,
2013-11-13 00:47:00,30.7,20.7,31.36,West,272,5.0,8.0,66,0.00,CLR,CLR,0.00,WeatherDisplay:10.37,2013-11-13 05:47:00,
2013-11-13 00:52:00,30.7,20.3,31.36,West,279,2.0,7.0,65,0.00,CLR,CLR,0.00,WeatherDisplay:10.37,2013-11-13 05:52:00,
2013-11-13 00:57:00,30.7,20.7,31.36,West,278,2.0,8.0,66,0.00,CLR,CLR,0.00,WeatherDisplay:10.37,2013-11-13 05:57:00,
2013-11-13 01:02:00,30.7,20.3,31.36,West,281,5.0,7.0,65,0.00,CLR,CLR,0.00,WeatherDisplay:10.37,2013-11-13 06:02:00,
2013-11-13 01:07:00,30.8,20.0,31.36,WNW,284,2.0,4.0,64,0.00,CLR,CLR,0.00,WeatherDisplay:10.37,2013-11-13 06:07:00,
2013-11-13 01:12:00,30.7,20.7,31.36,West,274,3.0,5.0,66,0.00,CLR,CLR,0.00,WeatherDisplay:10.37,2013-11-13 06:12:00,
2013-11-13 01:17:00,30.7,20.7,31.36,West,262,3.0,7.0,66,0.00,CLR,CLR,0.00,WeatherDisplay:10.37,2013-11-13 06:17:00,
2013-11-13 01:22:00,30.8,21.1,31.36,WSW,255,3.0,6.0,67,0.00,CLR,CLR,0.00,WeatherDisplay:10.37,2013-11-13 06:22:00,
2013-11-13 01:27:00,30.7,20.7,31.36,WSW,254,0.0,6.0,66,0.00,CLR,CLR,0.00,WeatherDisplay:10.37,2013-11-13 06:27:00,
2013-11-13 01:32:00,30.7,21.0,31.36,WSW,254,3.0,9.0,67,0.00,CLR,CLR,0.00,WeatherDisplay:10.37,2013-11-13 06:32:00,
2013-11-13 01:37:00,30.7,21.4,31.37,West,260,2.0,4.0,68,0.00,CLR,CLR,0.00,WeatherDisplay:10.37,2013-11-13 06:37:00,
2013-11-13 01:42:00,30.7,21.4,31.37,West,272,3.0,5.0,68,0.00,CLR,CLR,0.00,WeatherDisplay:10.37,2013-11-13 06:42:00,
2013-11-13 01:47:00,30.7,21.4,31.36,West,280,2.0,5.0,68,0.00,CLR,CLR,0.00,WeatherDisplay:10.37,2013-11-13 06:47:00,
2013-11-13 01:52:00,30.7,21.7,31.36,West,265,2.0,5.0,69,0.00,CLR,CLR,0.00,WeatherDisplay:10.37,2013-11-13 06:52:00,
2013-11-13 01:57:00,30.7,21.7,31.36,WSW,244,2.0,5.0,69,0.00,CLR,CLR,0.00,WeatherDisplay:10.37,2013-11-13 06:57:00,
2013-11-13 02:02:00,30.7,22.1,31.36,WSW,239,1.0,4.0,70,0.00,CLR,CLR,0.00,WeatherDisplay:10.37,2013-11-13 07:02:00,
2013-11-13 02:07:00,30.6,22.3,31.37,WSW,239,2.0,4.0,71,0.00,CLR,CLR,0.00,WeatherDisplay:10.37,2013-11-13 07:07:00,
2013-11-13 02:12:00,30.6,22.0,31.36,WSW,245,2.0,4.0,70,0.00,CLR,CLR,0.00,WeatherDisplay:10.37,2013-11-13 07:12:00,
2013-11-13 02:17:00,30.6,22.3,31.37,WSW,250,2.0,4.0,71,0.00,CLR,CLR,0.00,WeatherDisplay:10.37,2013-11-13 07:17:00,
2013-11-13 02:22:00,30.6,22.3,31.37,WSW,252,3.0,4.0,71,0.00,CLR,CLR,0.00,WeatherDisplay:10.37,2013-11-13 07:22:00,
2013-11-13 02:27:00,30.6,22.3,31.37,WSW,251,1.0,5.0,71,0.00,CLR,CLR,0.00,WeatherDisplay:10.37,2013-11-13 07:27:00,
2013-11-13 02:32:00,30.6,23.0,31.36,WSW,248,3.0,9.0,73,0.00,CLR,CLR,0.00,WeatherDisplay:10.37,2013-11-13 07:32:00,
2013-11-13 02:37:00,30.6,22.6,31.36,WSW,247,3.0,5.0,72,0.00,CLR,CLR,0.00,WeatherDisplay:10.37,2013-11-13 07:37:00,
2013-11-13 02:42:00,30.6,23.0,31.36,WSW,247,3.0,5.0,73,0.00,CLR,CLR,0.00,WeatherDisplay:10.37,2013-11-13 07:42:00,
2013-11-13 02:47:00,30.7,22.4,31.37,WSW,251,6.0,9.0,71,0.00,CLR,CLR,0.00,WeatherDisplay:10.37,2013-11-13 07:47:00,
2013-11-13 02:52:00,30.7,23.1,31.37,WSW,257,3.0,6.0,73,0.00,CLR,CLR,0.00,WeatherDisplay:10.37,2013-11-13 07:52:00,
2013-11-13 02:57:00,30.7,22.8,31.36,West,260,5.0,6.0,72,0.00,CLR,CLR,0.00,WeatherDisplay:10.37,2013-11-13 07:57:00,
2013-11-13 03:02:00,30.8,22.8,31.36,WSW,250,3.0,6.0,72,0.00,CLR,CLR,0.00,WeatherDisplay:10.37,2013-11-13 08:02:00,
2013-11-13 03:07:00,30.8,23.2,31.37,WSW,243,2.0,5.0,73,0.00,CLR,CLR,0.00,WeatherDisplay:10.37,2013-11-13 08:07:00,
2013-11-13 03:12:00,30.8,22.8,31.37,WSW,246,1.0,5.0,72,0.00,CLR,CLR,0.00,WeatherDisplay:10.37,2013-11-13 08:12:00,
2013-11-13 03:17:00,30.8,22.8,31.37,WSW,246,1.0,3.0,72,0.00,CLR,CLR,0.00,WeatherDisplay:10.37,2013-11-13 08:17:00,
2013-11-13 03:22:00,30.7,22.7,31.36,WSW,246,3.0,5.0,72,0.00,CLR,CLR,0.00,WeatherDisplay:10.37,2013-11-13 08:22:00,
2013-11-13 03:27:00,30.7,22.8,31.36,WSW,246,2.0,5.0,72,0.00,CLR,CLR,0.00,WeatherDisplay:10.37,2013-11-13 08:27:00,
2013-11-13 03:32:00,30.8,22.8,31.36,WSW,246,2.0,6.0,72,0.00,CLR,CLR,0.00,WeatherDisplay:10.37,2013-11-13 08:32:00,
2013-11-13 03:37:00,30.8,23.2,31.36,WSW,250,3.0,6.0,73,0.00,CLR,CLR,0.00,WeatherDisplay:10.37,2013-11-13 08:37:00,
2013-11-13 03:42:00,30.8,22.8,31.36,WSW,254,3.0,6.0,72,0.00,CLR,CLR,0.00,WeatherDisplay:10.37,2013-11-13 08:42:00,
2013-11-13 03:47:00,30.8,22.8,31.36,WSW,257,3.0,7.0,72,0.00,CLR,CLR,0.00,WeatherDisplay:10.37,2013-11-13 08:47:00,
2013-11-13 03:52:00,30.8,23.1,31.36,WSW,256,3.0,6.0,73,0.00,CLR,CLR,0.00,WeatherDisplay:10.37,2013-11-13 08:52:00,
2013-11-13 03:57:00,30.7,22.4,31.36,West,260,2.0,5.0,71,0.00,CLR,CLR,0.00,WeatherDisplay:10.37,2013-11-13 08:57:00,
2013-11-13 04:02:00,30.6,23.0,31.36,WSW,253,3.0,6.0,73,0.00,CLR,CLR,0.00,WeatherDisplay:10.37,2013-11-13 09:02:00,
2013-11-13 04:07:00,30.5,22.5,31.37,WSW,245,2.0,4.0,72,0.00,CLR,CLR,0.00,WeatherDisplay:10.37,2013-11-13 09:07:00,
2013-11-13 04:12:00,30.5,22.9,31.37,WSW,249,1.0,3.0,73,0.00,CLR,CLR,0.00,WeatherDisplay:10.37,2013-11-13 09:12:00,
2013-11-13 04:17:00,30.5,22.9,31.37,WSW,251,2.0,5.0,73,0.00,CLR,CLR,0.00,WeatherDisplay:10.37,2013-11-13 09:17:00,
2013-11-13 04:22:00,30.5,23.2,31.37,WSW,251,2.0,4.0,74,0.00,CLR,CLR,0.00,WeatherDisplay:10.37,2013-11-13 09:22:00,
2013-11-13 04:27:00,30.5,23.2,31.37,WSW,252,1.0,4.0,74,0.00,CLR,CLR,0.00,WeatherDisplay:10.37,2013-11-13 09:27:00,
2013-11-13 04:32:00,30.5,23.5,31.37,WSW,254,3.0,5.0,75,0.00,CLR,CLR,0.00,WeatherDisplay:10.37,2013-11-13 09:32:00,
2013-11-13 04:37:00,30.5,23.2,31.37,WSW,256,3.0,5.0,74,0.00,CLR,CLR,0.00,WeatherDisplay:10.37,2013-11-13 09:37:00,
2013-11-13 04:42:00,30.6,23.6,31.37,WSW,252,3.0,6.0,75,0.00,CLR,CLR,0.00,WeatherDisplay:10.37,2013-11-13 09:42:00,
2013-11-13 04:47:00,30.6,23.3,31.37,WSW,244,3.0,6.0,74,0.00,CLR,CLR,0.00,WeatherDisplay:10.37,2013-11-13 09:47:00,
2013-11-13 04:52:00,30.6,23.3,31.37,WSW,242,2.0,5.0,74,0.00,CLR,CLR,0.00,WeatherDisplay:10.37,2013-11-13 09:52:00,
2013-11-13 04:57:00,30.6,23.3,31.37,WSW,243,2.0,4.0,74,0.00,CLR,CLR,0.00,WeatherDisplay:10.37,2013-11-13 09:57:00,
2013-11-13 05:02:00,30.5,23.8,31.37,WSW,239,3.0,5.0,76,0.00,CLR,CLR,0.00,WeatherDisplay:10.37,2013-11-13 10:02:00,
2013-11-13 05:07:00,30.5,23.8,31.37,SW,232,5.0,6.0,76,0.00,CLR,CLR,0.00,WeatherDisplay:10.37,2013-11-13 10:07:00,
2013-11-13 05:12:00,30.5,23.8,31.37,SW,226,5.0,6.0,76,0.00,CLR,CLR,0.00,WeatherDisplay:10.37,2013-11-13 10:12:00,
2013-11-13 05:17:00,30.5,23.8,31.37,SW,225,3.0,6.0,76,0.00,CLR,CLR,0.00,WeatherDisplay:10.37,2013-11-13 10:17:00,
2013-11-13 05:22:00,30.4,23.5,31.37,SW,226,5.0,7.0,75,0.00,CLR,CLR,0.00,WeatherDisplay:10.37,2013-11-13 10:22:00,
2013-11-13 05:27:00,30.4,23.8,31.38,SW,226,5.0,6.0,76,0.00,CLR,CLR,0.00,WeatherDisplay:10.37,2013-11-13 10:27:00,
2013-11-13 05:32:00,30.4,23.4,31.38,SW,226,5.0,8.0,75,0.00,CLR,CLR,0.00,WeatherDisplay:10.37,2013-11-13 10:32:00,
2013-11-13 05:37:00,30.4,23.5,31.38,SW,225,6.0,7.0,75,0.00,CLR,CLR,0.00,WeatherDisplay:10.37,2013-11-13 10:37:00,
2013-11-13 05:42:00,30.4,23.5,31.38,SW,225,5.0,6.0,75,0.00,CLR,CLR,0.00,WeatherDisplay:10.37,2013-11-13 10:42:00,
2013-11-13 05:47:00,30.4,23.4,31.37,SW,226,5.0,7.0,75,0.00,CLR,CLR,0.00,WeatherDisplay:10.37,2013-11-13 10:47:00,
2013-11-13 05:52:00,30.4,23.7,31.38,SW,227,6.0,7.0,76,0.00,CLR,CLR,0.00,WeatherDisplay:10.37,2013-11-13 10:52:00,
2013-11-13 05:57:00,30.4,23.4,31.38,SW,228,6.0,8.0,75,0.00,CLR,CLR,0.00,WeatherDisplay:10.37,2013-11-13 10:57:00,
2013-11-13 06:02:00,30.4,23.7,31.38,SW,228,5.0,7.0,76,0.00,CLR,CLR,0.00,WeatherDisplay:10.37,2013-11-13 11:02:00,
2013-11-13 06:07:00,30.3,23.3,31.38,SW,230,3.0,5.0,75,0.00,CLR,CLR,0.00,WeatherDisplay:10.37,2013-11-13 11:07:00,
2013-11-13 06:12:00,30.3,23.3,31.38,SW,228,6.0,7.0,75,0.00,CLR,CLR,0.00,WeatherDisplay:10.37,2013-11-13 11:12:00,
2013-11-13 06:17:00,30.3,23.6,31.38,SW,224,5.0,7.0,76,0.00,CLR,CLR,0.00,WeatherDisplay:10.37,2013-11-13 11:17:00,
2013-11-13 06:22:00,30.2,23.2,31.38,SW,222,3.0,6.0,75,0.00,CLR,CLR,0.00,WeatherDisplay:10.37,2013-11-13 11:22:00,
2013-11-13 06:27:00,30.2,23.5,31.37,SW,231,5.0,6.0,76,0.00,CLR,CLR,0.00,WeatherDisplay:10.37,2013-11-13 11:27:00,
2013-11-13 06:32:00,30.2,23.5,31.37,SW,225,3.0,5.0,76,0.00,CLR,CLR,0.00,WeatherDisplay:10.37,2013-11-13 11:32:00,
2013-11-13 06:37:00,30.2,23.5,31.38,SW,217,3.0,5.0,76,0.00,CLR,CLR,0.00,WeatherDisplay:10.37,2013-11-13 11:37:00,
2013-11-13 06:42:00,30.2,23.5,31.38,SW,218,3.0,5.0,76,0.00,CLR,CLR,0.00,WeatherDisplay:10.37,2013-11-13 11:42:00,
2013-11-13 06:47:00,30.2,23.8,31.38,SW,218,1.0,3.0,77,0.00,CLR,CLR,0.00,WeatherDisplay:10.37,2013-11-13 11:47:00,
2013-11-13 06:52:00,30.1,23.8,31.38,SW,218,0.0,3.0,77,0.00,CLR,CLR,0.00,WeatherDisplay:10.37,2013-11-13 11:52:00,
2013-11-13 06:57:00,30.0,23.6,31.38,SW,218,0.0,0.0,77,0.00,CLR,CLR,0.00,WeatherDisplay:10.37,2013-11-13 11:57:00,
2013-11-13 07:02:00,29.9,23.3,31.38,SW,218,0.0,0.0,76,0.00,CLR,CLR,0.00,WeatherDisplay:10.37,2013-11-13 12:02:00,
2013-11-13 07:07:00,29.9,23.9,31.38,SW,218,0.0,3.0,78,0.00,CLR,CLR,0.00,WeatherDisplay:10.37,2013-11-13 12:07:00,
2013-11-13 07:12:00,29.9,24.2,31.38,SW,218,2.0,3.0,79,0.00,CLR,CLR,0.00,WeatherDisplay:10.37,2013-11-13 12:12:00,
2013-11-13 07:17:00,29.9,23.9,31.38,SW,218,2.0,4.0,78,0.00,CLR,CLR,0.00,WeatherDisplay:10.37,2013-11-13 12:17:00,
2013-11-13 07:22:00,29.9,23.9,31.39,SW,218,3.0,5.0,78,0.00,CLR,CLR,0.00,WeatherDisplay:10.37,2013-11-13 12:22:00,
2013-11-13 07:27:00,29.9,24.2,31.39,SW,218,2.0,5.0,79,0.00,CLR,CLR,0.00,WeatherDisplay:10.37,2013-11-13 12:27:00,
2013-11-13 07:32:00,29.9,23.9,31.39,SW,218,2.0,4.0,78,0.00,CLR,CLR,0.00,WeatherDisplay:10.37,2013-11-13 12:32:00,
2013-11-13 07:37:00,30.0,23.9,31.39,SW,218,3.0,6.0,78,0.00,CLR,CLR,0.00,WeatherDisplay:10.37,2013-11-13 12:37:00,
2013-11-13 07:42:00,30.0,24.3,31.39,SW,218,3.0,5.0,79,0.00,CLR,CLR,0.00,WeatherDisplay:10.37,2013-11-13 12:42:00,
2013-11-13 07:47:00,29.9,23.9,31.39,SW,217,1.0,5.0,78,0.00,CLR,CLR,0.00,WeatherDisplay:10.37,2013-11-13 12:47:00,
2013-11-13 07:52:00,29.8,23.8,31.39,SW,217,1.0,3.0,78,0.00,CLR,CLR,0.00,WeatherDisplay:10.37,2013-11-13 12:52:00,
2013-11-13 07:57:00,29.3,23.3,31.39,West,263,0.0,0.0,78,0.00,CLR,CLR,0.00,WeatherDisplay:10.37,2013-11-13 12:57:00,
2013-11-13 08:02:00,29.2,23.2,31.39,North,2,0.0,0.0,78,0.00,CLR,CLR,0.00,WeatherDisplay:10.37,2013-11-13 13:02:00,
2013-11-13 08:07:00,29.1,23.1,31.39,North,1,0.0,0.0,78,0.00,CLR,CLR,0.00,WeatherDisplay:10.37,2013-11-13 13:07:00,
2013-11-13 08:12:00,29.1,23.1,31.39,North,1,0.0,0.0,78,0.00,CLR,CLR,0.00,WeatherDisplay:10.37,2013-11-13 13:12:00,
2013-11-13 08:17:00,29.2,23.2,31.39,North,2,0.0,0.0,78,0.00,CLR,CLR,0.00,WeatherDisplay:10.37,2013-11-13 13:17:00,
2013-11-13 08:22:00,29.4,23.4,31.39,North,1,0.0,0.0,78,0.00,CLR,CLR,0.00,WeatherDisplay:10.37,2013-11-13 13:22:00,
2013-11-13 08:27:00,29.4,23.4,31.40,North,2,0.0,0.0,78,0.00,CLR,CLR,0.00,WeatherDisplay:10.37,2013-11-13 13:27:00,
2013-11-13 08:32:00,29.6,23.6,31.40,North,1,0.0,0.0,78,0.00,CLR,CLR,0.00,WeatherDisplay:10.37,2013-11-13 13:32:00,
2013-11-13 08:37:00,29.8,24.0,31.40,North,1,0.0,0.0,79,0.00,CLR,CLR,0.00,WeatherDisplay:10.37,2013-11-13 13:37:00,
2013-11-13 08:42:00,29.9,23.6,31.40,North,1,0.0,0.0,77,0.00,CLR,CLR,0.00,WeatherDisplay:10.37,2013-11-13 13:42:00,
2013-11-13 08:47:00,30.2,24.1,31.39,North,1,0.0,0.0,78,0.00,CLR,CLR,0.00,WeatherDisplay:10.37,2013-11-13 13:47:00,
2013-11-13 08:52:00,30.2,23.9,31.39,North,1,0.0,0.0,77,0.00,CLR,CLR,0.00,WeatherDisplay:10.37,2013-11-13 13:52:00,
2013-11-13 08:57:00,30.3,23.6,31.39,North,1,0.0,0.0,76,0.00,CLR,CLR,0.00,WeatherDisplay:10.37,2013-11-13 13:57:00,
2013-11-13 09:02:00,30.3,24.0,31.39,North,1,0.0,0.0,77,0.00,CLR,CLR,0.00,WeatherDisplay:10.37,2013-11-13 14:02:00,
2013-11-13 09:07:00,30.3,23.6,31.39,North,1,0.0,0.0,76,0.00,CLR,CLR,0.00,WeatherDisplay:10.37,2013-11-13 14:07:00,
2013-11-13 09:12:00,30.3,24.0,31.39,North,2,0.0,0.0,77,0.00,CLR,CLR,0.00,WeatherDisplay:10.37,2013-11-13 14:12:00,
2013-11-13 09:17:00,30.4,23.7,31.39,North,2,0.0,0.0,76,0.00,CLR,CLR,0.00,WeatherDisplay:10.37,2013-11-13 14:17:00,
2013-11-13 09:22:00,30.5,23.8,31.39,North,1,0.0,0.0,76,0.00,CLR,CLR,0.00,WeatherDisplay:10.37,2013-11-13 14:22:00,
2013-11-13 09:27:00,30.9,24.5,31.39,North,1,0.0,0.0,77,0.00,CLR,CLR,0.00,WeatherDisplay:10.37,2013-11-13 14:27:00,
2013-11-13 09:32:00,31.0,24.6,31.40,North,2,0.0,0.0,77,0.00,CLR,CLR,0.00,WeatherDisplay:10.37,2013-11-13 14:32:00,
2013-11-13 09:37:00,30.8,24.4,31.40,North,1,0.0,0.0,77,0.00,CLR,CLR,0.00,WeatherDisplay:10.37,2013-11-13 14:37:00,
2013-11-13 09:42:00,30.7,24.3,31.40,North,1,0.0,0.0,77,0.00,CLR,CLR,0.00,WeatherDisplay:10.37,2013-11-13 14:42:00,
2013-11-13 09:47:00,30.7,24.7,31.40,North,2,0.0,0.0,78,0.00,CLR,CLR,0.00,WeatherDisplay:10.37,2013-11-13 14:47:00,
2013-11-13 09:52:00,30.7,25.0,31.39,North,2,0.0,0.0,79,0.00,CLR,CLR,0.00,WeatherDisplay:10.37,2013-11-13 14:52:00,
2013-11-13 09:57:00,30.8,24.8,31.39,North,2,0.0,0.0,78,0.00,CLR,CLR,0.00,WeatherDisplay:10.37,2013-11-13 14:57:00,
2013-11-13 10:02:00,31.1,24.7,31.39,North,1,0.0,0.0,77,0.00,CLR,CLR,0.00,WeatherDisplay:10.37,2013-11-13 15:02:00,
2013-11-13 10:07:00,31.0,24.9,31.40,North,3,0.0,0.0,78,0.00,CLR,CLR,0.00,WeatherDisplay:10.37,2013-11-13 15:07:00,
2013-11-13 10:12:00,30.9,24.8,31.39,North,1,0.0,0.0,78,0.00,CLR,CLR,0.00,WeatherDisplay:10.37,2013-11-13 15:12:00,
2013-11-13 10:17:00,30.7,24.7,31.39,North,2,0.0,0.0,78,0.00,CLR,CLR,0.00,WeatherDisplay:10.37,2013-11-13 15:17:00,
2013-11-13 10:22:00,30.7,24.7,31.39,North,4,0.0,0.0,78,0.00,CLR,CLR,0.00,WeatherDisplay:10.37,2013-11-13 15:22:00,
2013-11-13 10:27:00,30.9,24.8,31.39,North,3,0.0,0.0,78,0.00,CLR,CLR,0.00,WeatherDisplay:10.37,2013-11-13 15:27:00,
2013-11-13 10:32:00,30.9,24.5,31.39,North,1,0.0,0.0,77,0.00,CLR,CLR,0.00,WeatherDisplay:10.37,2013-11-13 15:32:00,
2013-11-13 10:37:00,30.9,24.2,31.40,North,0,0.0,0.0,76,0.00,CLR,CLR,0.00,WeatherDisplay:10.37,2013-11-13 15:37:00,
2013-11-13 10:42:00,30.9,24.2,31.40,North,1,0.0,0.0,76,0.00,CLR,CLR,0.00,WeatherDisplay:10.37,2013-11-13 15:42:00,
2013-11-13 10:47:00,31.1,24.4,31.39,North,1,0.0,0.0,76,0.00,CLR,CLR,0.00,WeatherDisplay:10.37,2013-11-13 15:47:00,
2013-11-13 10:52:00,31.3,24.9,31.39,North,1,0.0,0.0,77,0.00,CLR,CLR,0.00,WeatherDisplay:10.37,2013-11-13 15:52:00,
2013-11-13 10:57:00,31.5,25.1,31.39,North,1,0.0,0.0,77,0.00,CLR,CLR,0.00,WeatherDisplay:10.37,2013-11-13 15:57:00,
2013-11-13 11:02:00,31.5,24.5,31.39,North,1,0.0,0.0,75,0.00,CLR,CLR,0.00,WeatherDisplay:10.37,2013-11-13 16:02:00,
2013-11-13 11:07:00,31.3,24.6,31.39,North,1,0.0,0.0,76,0.00,CLR,CLR,0.00,WeatherDisplay:10.37,2013-11-13 16:07:00,
2013-11-13 11:12:00,31.3,24.6,31.39,North,1,0.0,0.0,76,0.00,CLR,CLR,0.00,WeatherDisplay:10.37,2013-11-13 16:12:00,
2013-11-13 11:17:00,31.4,24.4,31.39,North,1,0.0,0.0,75,0.00,CLR,CLR,0.00,WeatherDisplay:10.37,2013-11-13 16:17:00,
2013-11-13 11:22:00,31.6,24.6,31.39,North,0,0.0,0.0,75,0.00,CLR,CLR,0.00,WeatherDisplay:10.37,2013-11-13 16:22:00,
2013-11-13 11:27:00,31.7,24.0,31.39,North,0,0.0,0.0,73,0.00,CLR,CLR,0.00,WeatherDisplay:10.37,2013-11-13 16:27:00,
2013-11-13 11:32:00,31.6,24.3,31.38,North,0,0.0,0.0,74,0.00,CLR,CLR,0.00,WeatherDisplay:10.37,2013-11-13 16:32:00,
2013-11-13 11:37:00,32.1,24.4,31.38,North,1,0.0,0.0,73,0.00,CLR,CLR,0.00,WeatherDisplay:10.37,2013-11-13 16:37:00,
2013-11-13 11:42:00,32.8,24.8,31.37,North,3,0.0,0.0,72,0.00,CLR,CLR,0.00,WeatherDisplay:10.37,2013-11-13 16:42:00,
2013-11-13 11:47:00,33.3,25.2,31.37,North,1,0.0,0.0,72,0.00,CLR,CLR,0.00,WeatherDisplay:10.37,2013-11-13 16:47:00,
2013-11-13 11:52:00,33.1,25.1,31.37,North,1,0.0,0.0,72,0.00,CLR,CLR,0.00,WeatherDisplay:10.37,2013-11-13 16:52:00,
2013-11-13 11:57:00,33.1,24.7,31.37,North,1,0.0,0.0,71,0.00,CLR,CLR,0.00,WeatherDisplay:10.37,2013-11-13 16:57:00,
2013-11-13 12:02:00,33.3,24.2,31.37,North,1,0.0,0.0,69,0.00,CLR,CLR,0.00,WeatherDisplay:10.37,2013-11-13 17:02:00,
2013-11-13 12:07:00,33.6,24.1,31.37,North,1,0.0,0.0,68,0.00,CLR,CLR,0.00,WeatherDisplay:10.37,2013-11-13 17:07:00,
2013-11-13 12:12:00,33.9,24.8,31.36,North,1,0.0,0.0,69,0.00,CLR,CLR,0.00,WeatherDisplay:10.37,2013-11-13 17:12:00,
2013-11-13 12:17:00,34.2,24.8,31.36,North,1,0.0,0.0,68,0.00,CLR,CLR,0.00,WeatherDisplay:10.37,2013-11-13 17:17:00,
2013-11-13 12:22:00,34.5,25.1,31.36,North,0,0.0,0.0,68,0.00,CLR,CLR,0.00,WeatherDisplay:10.37,2013-11-13 17:22:00,
2013-11-13 12:27:00,34.7,24.5,31.36,North,3,0.0,0.0,66,0.00,CLR,CLR,0.00,WeatherDisplay:10.37,2013-11-13 17:27:00,
2013-11-13 12:32:00,34.6,24.4,31.36,North,3,0.0,0.0,66,0.00,CLR,CLR,0.00,WeatherDisplay:10.37,2013-11-13 17:32:00,
2013-11-13 12:37:00,34.8,24.9,31.35,North,3,0.0,0.0,67,0.00,CLR,CLR,0.00,WeatherDisplay:10.37,2013-11-13 17:37:00,
2013-11-13 12:42:00,35.0,24.4,31.35,North,2,0.0,0.0,65,0.00,CLR,CLR,0.00,WeatherDisplay:10.37,2013-11-13 17:42:00,
2013-11-13 12:47:00,35.3,24.7,31.34,North,1,0.0,0.0,65,0.00,CLR,CLR,0.00,WeatherDisplay:10.37,2013-11-13 17:47:00,
2013-11-13 12:52:00,35.1,24.1,31.34,North,2,0.0,0.0,64,0.00,CLR,CLR,0.00,WeatherDisplay:10.37,2013-11-13 17:52:00,
2013-11-13 12:57:00,35.5,24.9,31.34,North,1,0.0,0.0,65,0.01,RA,RA,0.01,WeatherDisplay:10.37,2013-11-13 17:57:00,
2013-11-13 13:02:00,35.2,23.9,31.34,North,1,0.0,0.0,63,0.00,RA,RA,0.01,WeatherDisplay:10.37,2013-11-13 18:02:00,
2013-11-13 13:07:00,35.5,24.5,31.34,North,2,0.0,0.0,64,0.00,CLR,CLR,0.01,WeatherDisplay:10.37,2013-11-13 18:07:00,
2013-11-13 13:12:00,35.7,24.7,31.33,North,1,0.0,0.0,64,0.00,CLR,CLR,0.01,WeatherDisplay:10.37,2013-11-13 18:12:00,
2013-11-13 13:17:00,35.7,24.7,31.33,North,1,0.0,0.0,64,0.00,CLR,CLR,0.01,WeatherDisplay:10.37,2013-11-13 18:17:00,
2013-11-13 13:22:00,35.9,24.5,31.33,North,1,0.0,0.0,63,0.00,CLR,CLR,0.01,WeatherDisplay:10.37,2013-11-13 18:22:00,
2013-11-13 13:27:00,36.2,25.2,31.33,North,1,0.0,0.0,64,0.00,CLR,CLR,0.01,WeatherDisplay:10.37,2013-11-13 18:27:00,
2013-11-13 13:32:00,36.5,25.4,31.33,North,0,0.0,0.0,64,0.00,CLR,CLR,0.01,WeatherDisplay:10.37,2013-11-13 18:32:00,
2013-11-13 13:37:00,36.4,25.0,31.32,North,1,0.0,0.0,63,0.00,CLR,CLR,0.01,WeatherDisplay:10.37,2013-11-13 18:37:00,
2013-11-13 13:42:00,36.4,24.2,31.32,North,2,0.0,0.0,61,0.00,CLR,CLR,0.01,WeatherDisplay:10.37,2013-11-13 18:42:00,
2013-11-13 13:47:00,36.5,25.1,31.32,North,2,0.0,0.0,63,0.00,CLR,CLR,0.01,WeatherDisplay:10.37,2013-11-13 18:47:00,
2013-11-13 13:52:00,36.4,24.6,31.32,North,1,0.0,0.0,62,0.00,CLR,CLR,0.01,WeatherDisplay:10.37,2013-11-13 18:52:00,
2013-11-13 13:57:00,36.8,25.0,31.31,North,1,0.0,0.0,62,0.00,CLR,CLR,0.01,WeatherDisplay:10.37,2013-11-13 18:57:00,
2013-11-13 14:02:00,36.9,23.5,31.31,North,1,0.0,0.0,58,0.00,CLR,CLR,0.01,WeatherDisplay:10.37,2013-11-13 19:02:00,
2013-11-13 14:07:00,37.0,23.6,31.31,North,1,0.0,0.0,58,0.00,CLR,CLR,0.01,WeatherDisplay:10.37,2013-11-13 19:07:00,
2013-11-13 14:12:00,37.1,24.8,31.31,North,1,0.0,0.0,61,0.00,CLR,CLR,0.01,WeatherDisplay:10.37,2013-11-13 19:12:00,
2013-11-13 14:17:00,37.4,24.8,31.30,North,1,0.0,0.0,60,0.00,CLR,CLR,0.01,WeatherDisplay:10.37,2013-11-13 19:17:00,
2013-11-13 14:22:00,37.2,23.4,31.30,North,1,0.0,0.0,57,0.00,CLR,CLR,0.01,WeatherDisplay:10.37,2013-11-13 19:22:00,
2013-11-13 14:27:00,37.6,24.1,31.30,North,1,0.0,0.0,58,0.00,CLR,CLR,0.01,WeatherDisplay:10.37,2013-11-13 19:27:00,
2013-11-13 14:32:00,37.5,24.9,31.30,North,1,0.0,0.0,60,0.00,CLR,CLR,0.01,WeatherDisplay:10.37,2013-11-13 19:32:00,
2013-11-13 14:37:00,37.7,23.8,31.30,North,1,0.0,0.0,57,0.00,CLR,CLR,0.01,WeatherDisplay:10.37,2013-11-13 19:37:00,
2013-11-13 14:42:00,37.6,23.7,31.29,North,1,0.0,0.0,57,0.00,CLR,CLR,0.01,WeatherDisplay:10.37,2013-11-13 19:42:00,
2013-11-13 14:47:00,37.6,23.7,31.29,North,0,0.0,0.0,57,0.01,RA,RA,0.02,WeatherDisplay:10.37,2013-11-13 19:47:00,
2013-11-13 14:52:00,37.6,23.3,31.29,North,0,0.0,0.0,56,0.00,RA,RA,0.02,WeatherDisplay:10.37,2013-11-13 19:52:00,
2013-11-13 14:57:00,37.8,24.8,31.29,North,0,0.0,0.0,59,0.00,CLR,CLR,0.02,WeatherDisplay:10.37,2013-11-13 19:57:00,
2013-11-13 15:02:00,38.2,25.1,31.29,North,0,0.0,0.0,59,0.00,CLR,CLR,0.02,WeatherDisplay:10.37,2013-11-13 20:02:00,
2013-11-13 15:07:00,38.2,24.3,31.28,North,0,0.0,0.0,57,0.00,CLR,CLR,0.02,WeatherDisplay:10.37,2013-11-13 20:07:00,
2013-11-13 15:12:00,38.1,24.6,31.28,North,0,0.0,0.0,58,0.00,CLR,CLR,0.02,WeatherDisplay:10.37,2013-11-13 20:12:00,
2013-11-13 15:17:00,38.1,25.0,31.28,North,0,0.0,0.0,59,0.00,CLR,CLR,0.02,WeatherDisplay:10.37,2013-11-13 20:17:00,
2013-11-13 15:22:00,38.4,24.9,31.28,North,0,0.0,0.0,58,0.00,CLR,CLR,0.02,WeatherDisplay:10.37,2013-11-13 20:22:00,
2013-11-13 15:27:00,38.2,24.3,31.28,North,0,0.0,0.0,57,0.00,CLR,CLR,0.02,WeatherDisplay:10.37,2013-11-13 20:27:00,
2013-11-13 15:32:00,37.9,22.3,31.28,North,1,0.0,0.0,53,0.00,CLR,CLR,0.02,WeatherDisplay:10.37,2013-11-13 20:32:00,
2013-11-13 15:37:00,37.8,23.5,31.28,North,0,0.0,0.0,56,0.00,CLR,CLR,0.02,WeatherDisplay:10.37,2013-11-13 20:37:00,
2013-11-13 15:42:00,37.9,22.7,31.28,North,1,0.0,0.0,54,0.00,CLR,CLR,0.02,WeatherDisplay:10.37,2013-11-13 20:42:00,
2013-11-13 15:47:00,38.2,23.0,31.28,North,0,0.0,0.0,54,0.00,CLR,CLR,0.02,WeatherDisplay:10.37,2013-11-13 20:47:00,
2013-11-13 15:52:00,38.0,22.4,31.28,North,0,0.0,0.0,53,0.00,CLR,CLR,0.02,WeatherDisplay:10.37,2013-11-13 20:52:00,
2013-11-13 15:57:00,37.9,23.2,31.28,North,0,0.0,0.0,55,0.00,CLR,CLR,0.02,WeatherDisplay:10.37,2013-11-13 20:57:00,
2013-11-13 16:02:00,37.9,23.2,31.28,North,0,0.0,0.0,55,0.00,CLR,CLR,0.02,WeatherDisplay:10.37,2013-11-13 21:02:00,
2013-11-13 16:07:00,37.7,23.4,31.27,North,0,0.0,0.0,56,0.00,CLR,CLR,0.02,WeatherDisplay:10.37,2013-11-13 21:07:00,
2013-11-13 16:12:00,37.6,23.3,31.27,North,0,0.0,0.0,56,0.00,CLR,CLR,0.02,WeatherDisplay:10.37,2013-11-13 21:12:00,
2013-11-13 16:17:00,37.4,22.7,31.27,North,1,0.0,0.0,55,0.00,CLR,CLR,0.02,WeatherDisplay:10.37,2013-11-13 21:17:00,
2013-11-13 16:22:00,37.2,23.4,31.27,North,1,0.0,0.0,57,0.00,CLR,CLR,0.02,WeatherDisplay:10.37,2013-11-13 21:22:00,
2013-11-13 16:27:00,37.2,22.5,31.27,North,0,0.0,0.0,55,0.00,CLR,CLR,0.02,WeatherDisplay:10.37,2013-11-13 21:27:00,
2013-11-13 16:32:00,37.1,23.3,31.26,North,1,0.0,0.0,57,0.00,CLR,CLR,0.02,WeatherDisplay:10.37,2013-11-13 21:32:00,
2013-11-13 16:37:00,37.0,23.6,31.26,North,0,0.0,0.0,58,0.00,CLR,CLR,0.02,WeatherDisplay:10.37,2013-11-13 21:37:00,
2013-11-13 16:42:00,36.8,23.0,31.26,North,1,0.0,0.0,57,0.00,CLR,CLR,0.02,WeatherDisplay:10.37,2013-11-13 21:42:00,
2013-11-13 16:47:00,36.6,23.2,31.26,North,0,0.0,0.0,58,0.00,CLR,CLR,0.02,WeatherDisplay:10.37,2013-11-13 21:47:00,
2013-11-13 16:52:00,36.3,23.3,31.26,North,0,0.0,0.0,59,0.00,CLR,CLR,0.02,WeatherDisplay:10.37,2013-11-13 21:52:00,
2013-11-13 16:57:00,36.0,23.0,31.26,North,0,0.0,0.0,59,0.00,CLR,CLR,0.02,WeatherDisplay:10.37,2013-11-13 21:57:00,
2013-11-13 17:02:00,35.7,22.4,31.26,North,0,0.0,0.0,58,0.00,CLR,CLR,0.02,WeatherDisplay:10.37,2013-11-13 22:02:00,
2013-11-13 17:07:00,35.6,22.7,31.26,North,0,0.0,0.0,59,0.00,CLR,CLR,0.02,WeatherDisplay:10.37,2013-11-13 22:07:00,
2013-11-13 17:12:00,35.3,22.8,31.26,North,0,0.0,0.0,60,0.00,CLR,CLR,0.02,WeatherDisplay:10.37,2013-11-13 22:12:00,
2013-11-13 17:17:00,35.2,22.7,31.25,North,0,0.0,0.0,60,0.00,CLR,CLR,0.02,WeatherDisplay:10.37,2013-11-13 22:17:00,
2013-11-13 17:22:00,35.1,22.2,31.25,North,0,0.0,0.0,59,0.00,CLR,CLR,0.02,WeatherDisplay:10.37,2013-11-13 22:22:00,
2013-11-13 17:27:00,35.1,22.2,31.26,North,0,0.0,0.0,59,0.00,CLR,CLR,0.02,WeatherDisplay:10.37,2013-11-13 22:27:00,
2013-11-13 17:32:00,35.0,21.7,31.26,North,1,0.0,0.0,58,0.00,CLR,CLR,0.02,WeatherDisplay:10.37,2013-11-13 22:32:00,
2013-11-13 17:37:00,35.0,21.7,31.25,North,1,0.0,0.0,58,0.00,CLR,CLR,0.02,WeatherDisplay:10.37,2013-11-13 22:37:00,
2013-11-13 17:42:00,34.8,21.5,31.25,North,0,0.0,0.0,58,0.00,CLR,CLR,0.02,WeatherDisplay:10.37,2013-11-13 22:42:00,
2013-11-13 17:47:00,34.6,21.3,31.25,North,0,0.0,0.0,58,0.00,CLR,CLR,0.02,WeatherDisplay:10.37,2013-11-13 22:47:00,
2013-11-13 17:52:00,34.4,21.1,31.25,North,1,0.0,0.0,58,0.00,CLR,CLR,0.02,WeatherDisplay:10.37,2013-11-13 22:52:00,
2013-11-13 17:57:00,34.2,21.4,31.25,North,1,0.0,0.0,59,0.00,CLR,CLR,0.02,WeatherDisplay:10.37,2013-11-13 22:57:00,
2013-11-13 18:02:00,34.1,21.3,31.25,North,1,0.0,0.0,59,0.00,CLR,CLR,0.02,WeatherDisplay:10.37,2013-11-13 23:02:00,
2013-11-13 18:07:00,34.1,21.3,31.25,North,1,0.0,0.0,59,0.00,CLR,CLR,0.02,WeatherDisplay:10.37,2013-11-13 23:07:00,
2013-11-13 18:12:00,34.1,21.3,31.25,North,0,0.0,0.0,59,0.00,CLR,CLR,0.02,WeatherDisplay:10.37,2013-11-13 23:12:00,
2013-11-13 18:17:00,34.0,21.2,31.25,North,0,0.0,0.0,59,0.00,CLR,CLR,0.02,WeatherDisplay:10.37,2013-11-13 23:17:00,
2013-11-13 18:22:00,34.6,22.5,31.25,WSW,242,5.0,9.0,61,0.00,CLR,CLR,0.02,WeatherDisplay:10.37,2013-11-13 23:22:00,
2013-11-13 18:27:00,34.6,22.5,31.25,SSW,195,6.0,10.0,61,0.00,CLR,CLR,0.02,WeatherDisplay:10.37,2013-11-13 23:27:00,
2013-11-13 18:32:00,34.5,22.4,31.25,South,190,5.0,9.0,61,0.00,CLR,CLR,0.02,WeatherDisplay:10.37,2013-11-13 23:32:00,
2013-11-13 18:37:00,34.4,23.1,31.25,South,190,8.0,10.0,63,0.00,CLR,CLR,0.02,WeatherDisplay:10.37,2013-11-13 23:37:00,
2013-11-13 18:42:00,34.3,23.4,31.24,SSW,193,6.0,12.0,64,0.00,CLR,CLR,0.02,WeatherDisplay:10.37,2013-11-13 23:42:00,
2013-11-13 18:47:00,34.2,23.3,31.24,South,189,5.0,12.0,64,0.00,CLR,CLR,0.02,WeatherDisplay:10.37,2013-11-13 23:47:00,
2013-11-13 18:52:00,34.1,23.2,31.24,South,188,5.0,7.0,64,0.00,CLR,CLR,0.02,WeatherDisplay:10.37,2013-11-13 23:52:00,
2013-11-13 18:57:00,34.1,23.1,31.24,South,188,6.0,12.0,64,0.00,CLR,CLR,0.02,WeatherDisplay:10.37,2013-11-13 23:57:00,
2013-11-13 19:02:00,34.0,23.5,31.24,South,187,7.0,10.0,65,0.00,CLR,CLR,0.02,WeatherDisplay:10.37,2013-11-14 00:02:00,
2013-11-13 19:07:00,33.9,23.8,31.24,South,188,5.0,8.0,66,0.00,CLR,CLR,0.02,WeatherDisplay:10.37,2013-11-14 00:07:00,
2013-11-13 19:12:00,33.9,23.4,31.24,South,188,7.0,10.0,65,0.00,CLR,CLR,0.02,WeatherDisplay:10.37,2013-11-14 00:12:00,
2013-11-13 19:17:00,33.9,23.7,31.23,South,186,7.0,10.0,66,0.00,CLR,CLR,0.02,WeatherDisplay:10.37,2013-11-14 00:17:00,
2013-11-13 19:22:00,33.9,23.4,31.23,South,187,6.0,10.0,65,0.00,CLR,CLR,0.02,WeatherDisplay:10.37,2013-11-14 00:22:00,
2013-11-13 19:27:00,33.9,23.4,31.23,South,187,7.0,10.0,65,0.00,CLR,CLR,0.02,WeatherDisplay:10.37,2013-11-14 00:27:00,
2013-11-13 19:32:00,33.9,23.7,31.23,South,189,8.0,12.0,66,0.00,CLR,CLR,0.02,WeatherDisplay:10.37,2013-11-14 00:32:00,
2013-11-13 19:37:00,33.8,23.6,31.23,South,182,7.0,10.0,66,0.00,CLR,CLR,0.02,WeatherDisplay:10.37,2013-11-14 00:37:00,
2013-11-13 19:42:00,33.7,23.9,31.23,South,178,6.0,9.0,67,0.00,CLR,CLR,0.02,WeatherDisplay:10.37,2013-11-14 00:42:00,
2013-11-13 19:47:00,33.6,23.1,31.23,South,182,8.0,12.0,65,0.00,CLR,CLR,0.02,WeatherDisplay:10.37,2013-11-14 00:47:00,
2013-11-13 19:52:00,33.7,23.5,31.23,South,185,7.0,12.0,66,0.00,CLR,CLR,0.02,WeatherDisplay:10.37,2013-11-14 00:52:00,
2013-11-13 19:57:00,33.7,23.2,31.23,SSW,194,7.0,12.0,65,0.00,CLR,CLR,0.02,WeatherDisplay:10.37,2013-11-14 00:57:00,
2013-11-13 20:02:00,33.8,23.3,31.23,SSW,196,7.0,12.0,65,0.00,CLR,CLR,0.02,WeatherDisplay:10.37,2013-11-14 01:02:00,
2013-11-13 20:07:00,33.8,23.3,31.23,South,190,7.0,12.0,65,0.00,CLR,CLR,0.02,WeatherDisplay:10.37,2013-11-14 01:07:00,
2013-11-13 20:12:00,33.9,23.0,31.22,South,191,9.0,14.0,64,0.00,CLR,CLR,0.02,WeatherDisplay:10.37,2013-11-14 01:12:00,
2013-11-13 20:17:00,33.9,23.0,31.22,SSW,194,6.0,13.0,64,0.00,CLR,CLR,0.02,WeatherDisplay:10.37,2013-11-14 01:17:00,
2013-11-13 20:22:00,33.9,23.0,31.22,SSW,195,7.0,12.0,64,0.00,CLR,CLR,0.02,WeatherDisplay:10.37,2013-11-14 01:22:00,
2013-11-13 20:27:00,34.0,22.7,31.22,South,191,10.0,14.0,63,0.00,CLR,CLR,0.02,WeatherDisplay:10.37,2013-11-14 01:27:00,
2013-11-13 20:32:00,34.0,22.7,31.22,SSW,193,12.0,14.0,63,0.00,CLR,CLR,0.02,WeatherDisplay:10.37,2013-11-14 01:32:00,
2013-11-13 20:37:00,34.2,22.5,31.22,SSW,193,7.0,17.0,62,0.00,CLR,CLR,0.02,WeatherDisplay:10.37,2013-11-14 01:37:00,
2013-11-13 20:42:00,34.2,22.1,31.22,SSW,197,10.0,15.0,61,0.00,CLR,CLR,0.02,WeatherDisplay:10.37,2013-11-14 01:42:00,
2013-11-13 20:47:00,34.1,22.8,31.22,SSW,199,10.0,15.0,63,0.00,CLR,CLR,0.02,WeatherDisplay:10.37,2013-11-14 01:47:00,
2013-11-13 20:52:00,34.1,22.5,31.22,SSW,196,12.0,17.0,62,0.00,CLR,CLR,0.02,WeatherDisplay:10.37,2013-11-14 01:52:00,
2013-11-13 20:57:00,34.2,22.9,31.22,SSW,193,9.0,18.0,63,0.00,CLR,CLR,0.02,WeatherDisplay:10.37,2013-11-14 01:57:00,
2013-11-13 21:02:00,34.1,22.4,31.21,South,191,8.0,12.0,62,0.00,CLR,CLR,0.02,WeatherDisplay:10.37,2013-11-14 02:02:00,
2013-11-13 21:07:00,34.1,22.8,31.21,SSW,192,12.0,16.0,63,0.00,CLR,CLR,0.02,WeatherDisplay:10.37,2013-11-14 02:07:00,
2013-11-13 21:12:00,34.2,22.5,31.21,SSW,196,7.0,15.0,62,0.00,CLR,CLR,0.02,WeatherDisplay:10.37,2013-11-14 02:12:00,
2013-11-13 21:17:00,34.1,22.4,31.21,SSW,196,9.0,18.0,62,0.00,CLR,CLR,0.02,WeatherDisplay:10.37,2013-11-14 02:17:00,
2013-11-13 21:22:00,34.0,23.1,31.20,SSW,195,7.0,13.0,64,0.00,CLR,CLR,0.02,WeatherDisplay:10.37,2013-11-14 02:22:00,
2013-11-13 21:27:00,33.9,22.6,31.21,SSW,193,10.0,15.0,63,0.00,CLR,CLR,0.02,WeatherDisplay:10.37,2013-11-14 02:27:00,
2013-11-13 21:32:00,33.9,22.6,31.21,SSW,197,9.0,14.0,63,0.00,CLR,CLR,0.02,WeatherDisplay:10.37,2013-11-14 02:32:00,
2013-11-13 21:37:00,33.8,24.0,31.20,SSW,195,12.0,17.0,67,0.00,CLR,CLR,0.02,WeatherDisplay:10.37,2013-11-14 02:37:00,
2013-11-13 21:42:00,33.8,22.9,31.20,South,190,8.0,15.0,64,0.00,CLR,CLR,0.02,WeatherDisplay:10.37,2013-11-14 02:42:00,
2013-11-13 21:47:00,33.7,22.8,31.20,SSW,192,8.0,13.0,64,0.00,CLR,CLR,0.02,WeatherDisplay:10.37,2013-11-14 02:47:00,
2013-11-13 21:52:00,33.5,23.0,31.20,SSW,195,9.0,12.0,65,0.00,CLR,CLR,0.02,WeatherDisplay:10.37,2013-11-14 02:52:00,
2013-11-13 21:57:00,33.5,23.0,31.20,South,191,10.0,14.0,65,0.00,CLR,CLR,0.02,WeatherDisplay:10.37,2013-11-14 02:57:00,
2013-11-13 22:02:00,33.5,22.6,31.19,SSW,192,8.0,13.0,64,0.00,CLR,CLR,0.02,WeatherDisplay:10.37,2013-11-14 03:02:00,
2013-11-13 22:07:00,33.4,23.3,31.19,SSW,193,9.0,16.0,66,0.00,CLR,CLR,0.02,WeatherDisplay:10.37,2013-11-14 03:07:00,
2013-11-13 22:12:00,33.4,22.9,31.19,South,191,10.0,15.0,65,0.00,CLR,CLR,0.02,WeatherDisplay:10.37,2013-11-14 03:12:00,
2013-11-13 22:17:00,33.3,23.2,31.19,South,191,9.0,14.0,66,0.00,CLR,CLR,0.02,WeatherDisplay:10.37,2013-11-14 03:17:00,
2013-11-13 22:22:00,33.3,22.8,31.19,South,189,9.0,13.0,65,0.00,CLR,CLR,0.02,WeatherDisplay:10.37,2013-11-14 03:22:00,
2013-11-13 22:27:00,33.3,22.8,31.18,South,191,10.0,13.0,65,0.00,CLR,CLR,0.02,WeatherDisplay:10.37,2013-11-14 03:27:00,
2013-11-13 22:32:00,33.3,22.4,31.18,South,191,8.0,12.0,64,0.00,CLR,CLR,0.02,WeatherDisplay:10.37,2013-11-14 03:32:00,
2013-11-13 22:37:00,33.4,22.5,31.18,South,191,7.0,16.0,64,0.00,CLR,CLR,0.02,WeatherDisplay:10.37,2013-11-14 03:37:00,
2013-11-13 22:42:00,33.2,22.7,31.18,South,191,8.0,13.0,65,0.00,CLR,CLR,0.02,WeatherDisplay:10.37,2013-11-14 03:42:00,
2013-11-13 22:47:00,33.2,22.7,31.18,South,187,9.0,14.0,65,0.00,CLR,CLR,0.02,WeatherDisplay:10.37,2013-11-14 03:47:00,
2013-11-13 22:52:00,33.2,22.3,31.18,South,187,8.0,12.0,64,0.00,CLR,CLR,0.02,WeatherDisplay:10.37,2013-11-14 03:52:00,
2013-11-13 22:57:00,33.3,22.4,31.17,SSW,192,9.0,14.0,64,0.00,CLR,CLR,0.02,WeatherDisplay:10.37,2013-11-14 03:57:00,
2013-11-13 23:02:00,33.2,22.7,31.17,SSW,193,9.0,13.0,65,0.00,CLR,CLR,0.02,WeatherDisplay:10.37,2013-11-14 04:02:00,
2013-11-13 23:07:00,33.3,22.4,31.17,South,190,9.0,12.0,64,0.00,CLR,CLR,0.02,WeatherDisplay:10.37,2013-11-14 04:07:00,
2013-11-13 23:12:00,33.2,23.1,31.17,South,188,7.0,13.0,66,0.00,CLR,CLR,0.02,WeatherDisplay:10.37,2013-11-14 04:12:00,
2013-11-13 23:17:00,33.1,22.6,31.17,South,185,10.0,13.0,65,0.00,CLR,CLR,0.02,WeatherDisplay:10.37,2013-11-14 04:17:00,
2013-11-13 23:22:00,33.1,22.2,31.17,South,182,8.0,12.0,64,0.00,CLR,CLR,0.02,WeatherDisplay:10.37,2013-11-14 04:22:00,
2013-11-13 23:27:00,33.0,22.9,31.17,South,182,7.0,12.0,66,0.00,CLR,CLR,0.02,WeatherDisplay:10.37,2013-11-14 04:27:00,
2013-11-13 23:32:00,32.9,22.8,31.16,South,185,8.0,13.0,66,0.00,CLR,CLR,0.02,WeatherDisplay:10.37,2013-11-14 04:32:00,
2013-11-13 23:37:00,32.9,22.8,31.16,South,182,8.0,13.0,66,0.00,CLR,CLR,0.02,WeatherDisplay:10.37,2013-11-14 04:37:00,
2013-11-13 23:42:00,32.9,22.4,31.16,South,183,7.0,13.0,65,0.00,CLR,CLR,0.02,WeatherDisplay:10.37,2013-11-14 04:42:00,
2013-11-13 23:47:00,32.8,22.7,31.16,South,184,7.0,13.0,66,0.00,CLR,CLR,0.02,WeatherDisplay:10.37,2013-11-14 04:47:00,
2013-11-13 23:52:00,32.8,22.7,31.16,SSW,192,8.0,13.0,66,0.00,CLR,CLR,0.02,WeatherDisplay:10.37,2013-11-14 04:52:00,
2013-11-13 23:57:00,32.8,22.7,31.15,South,191,9.0,13.0,66,0.00,CLR,CLR,0.02,WeatherDisplay:10.37,2013-11-14 04:57:00,